Terminal Aerodrome Forecast
Issued by NWS

Home | Current Version | Previous Version | Text Only | Print | Product List | Glossary On
Versions: 1 2 3 4 5 6 7 8 9 10 11 12 13 14 15 16 17 18 19
000
FTUS43 KDVN 232300
TAFCID
TAF
KCID 232333Z 2400/2424 29008KT P6SM -RA BKN015 OVC035
     FM240600 32010KT 4SM BR BKN008 OVC025
     FM241500 32012KT P6SM OVC015
     FM241800 33014G21KT P6SM BKN025=

USA.gov is the U.S. government's official web portal to all federal, state and local government web resources and services.